Time;durP1;ratioP1;P1;durP2;ratioP2;P2;SDS_P1;SDS_P2;PMS_P1;PMS_P2;Temp;Humidity;BMP_temperature;BMP_pressure;BME280_temperature;BME280_humidity;BME280_pressure;Samples;Min_cycle;Max_cycle;Signal;HPM_P1;HPM_P2
2022/12/05 00:08:33;;;;;;;57.10;23.08;;;;;;;2.50;100.00;100239.13;20819731;28;20057;-76
2022/12/05 00:18:34;;;;;;;60.92;23.40;;;;;;;2.49;100.00;100246.84;20802212;28;20054;-75
2022/12/05 00:28:35;;;;;;;57.63;22.77;;;;;;;2.58;100.00;100249.56;20736898;28;20050;-75
2022/12/05 00:38:37;;;;;;;56.45;22.73;;;;;;;2.63;100.00;100254.78;20744510;28;20084;-75
2022/12/05 00:48:38;;;;;;;60.25;23.52;;;;;;;2.62;100.00;100256.50;20755561;28;20058;-79
2022/12/05 00:58:39;;;;;;;64.35;24.27;;;;;;;2.61;100.00;100262.53;20752570;28;20053;-75
2022/12/05 01:08:40;;;;;;;64.03;23.83;;;;;;;2.62;100.00;100274.59;20769399;28;20104;-75
2022/12/05 01:18:42;;;;;;;59.35;23.48;;;;;;;2.50;100.00;100264.09;20831914;28;20065;-74
2022/12/05 01:28:43;;;;;;;71.38;25.60;;;;;;;2.57;100.00;100265.91;20830593;28;20057;-75
2022/12/05 01:38:44;;;;;;;62.45;24.55;;;;;;;2.55;100.00;100293.47;20829013;28;20103;-73
2022/12/05 01:48:46;;;;;;;69.00;26.90;;;;;;;2.68;100.00;100294.50;20827778;28;20061;-73
2022/12/05 01:58:47;;;;;;;76.88;27.50;;;;;;;2.76;100.00;100282.56;20829768;28;20049;-73
2022/12/05 02:08:48;;;;;;;79.10;25.80;;;;;;;2.73;100.00;100298.91;20827438;28;20053;-73
2022/12/05 02:18:50;;;;;;;75.28;24.27;;;;;;;2.81;100.00;100294.69;20807952;28;20477;-75
2022/12/05 02:28:51;;;;;;;65.32;22.77;;;;;;;2.86;100.00;100302.53;20745600;28;20490;-75
2022/12/05 02:38:52;;;;;;;58.70;22.25;;;;;;;2.93;100.00;100326.78;20726436;28;20172;-77
2022/12/05 02:48:54;;;;;;;73.65;23.73;;;;;;;2.92;100.00;100349.16;20743696;28;20054;-75
2022/12/05 02:58:55;;;;;;;64.28;22.50;;;;;;;2.95;100.00;100345.75;20747656;28;20096;-75
2022/12/05 03:08:56;;;;;;;65.45;21.00;;;;;;;2.91;100.00;100349.13;20765979;28;20053;-75
2022/12/05 03:18:57;;;;;;;67.70;21.90;;;;;;;3.00;100.00;100351.84;20826222;28;20057;-75
2022/12/05 03:28:59;;;;;;;65.40;20.98;;;;;;;3.06;100.00;100336.41;20821850;28;20045;-75
2022/12/05 03:39:00;;;;;;;68.32;22.13;;;;;;;3.01;100.00;100331.16;20821879;28;20049;-75
2022/12/05 03:49:01;;;;;;;69.10;20.98;;;;;;;2.95;100.00;100332.81;20820933;28;20058;-77
2022/12/05 03:59:02;;;;;;;68.93;21.50;;;;;;;3.02;100.00;100352.75;20820618;28;20061;-77
2022/12/05 04:09:04;;;;;;;66.45;24.23;;;;;;;3.08;100.00;100343.34;20818874;28;20111;-75
2022/12/05 04:19:05;;;;;;;74.55;25.92;;;;;;;3.07;100.00;100333.00;20818795;28;20057;-75
2022/12/05 04:29:06;;;;;;;69.55;24.50;;;;;;;2.99;100.00;100319.09;20818066;28;20050;-76
2022/12/05 04:39:08;;;;;;;69.60;24.52;;;;;;;2.97;100.00;100344.03;20817136;28;20053;-77
2022/12/05 04:49:17;;;;;;;64.60;22.15;;;;;;;3.08;100.00;100358.88;20816916;28;20148;-76
2022/12/05 04:59:19;;;;;;;57.30;20.70;;;;;;;3.20;100.00;100368.50;20817278;28;20049;-76
2022/12/05 05:09:20;;;;;;;65.60;22.65;;;;;;;3.25;100.00;100377.19;20815786;28;20520;-76
2022/12/05 05:19:21;;;;;;;61.60;20.83;;;;;;;3.21;100.00;100378.03;20815842;28;20077;-75
2022/12/05 05:29:23;;;;;;;60.58;22.48;;;;;;;3.22;100.00;100382.34;20827151;28;20057;-76
2022/12/05 05:39:25;;;;;;;59.22;21.95;;;;;;;3.29;100.00;100402.28;20830242;28;20495;-75
2022/12/05 05:49:27;;;;;;;58.83;21.80;;;;;;;3.35;100.00;100398.91;20829428;28;20095;-74
2022/12/05 05:59:28;;;;;;;59.97;23.80;;;;;;;3.39;100.00;100415.34;20828858;28;20103;-77
2022/12/05 06:09:29;;;;;;;50.13;21.85;;;;;;;3.34;100.00;100413.56;20827333;28;20111;-74
2022/12/05 06:19:31;;;;;;;53.47;21.15;;;;;;;3.29;100.00;100417.81;20801287;28;20064;-73
2022/12/05 06:29:32;;;;;;;49.45;19.50;;;;;;;3.36;100.00;100436.88;20744713;28;20506;-73
2022/12/05 06:39:34;;;;;;;44.45;18.83;;;;;;;3.43;100.00;100437.84;20743386;28;20050;-72
2022/12/05 06:49:35;;;;;;;48.80;20.17;;;;;;;3.44;100.00;100458.53;20743286;28;20407;-76
2022/12/05 06:59:38;;;;;;;47.55;19.23;;;;;;;3.46;100.00;100459.47;20741947;28;20053;-76
2022/12/05 07:09:47;;;;;;;50.38;20.10;;;;;;;3.46;100.00;100469.81;20768269;28;20188;-76
2022/12/05 07:19:48;;;;;;;48.90;19.73;;;;;;;3.50;100.00;100481.09;20821779;28;20108;-77
2022/12/05 07:29:49;;;;;;;46.90;20.33;;;;;;;3.46;100.00;100492.25;20818928;28;20064;-76
2022/12/05 07:39:51;;;;;;;46.15;19.92;;;;;;;3.55;100.00;100502.72;20817460;28;20084;-74
2022/12/05 07:49:52;;;;;;;45.50;20.23;;;;;;;3.61;100.00;100497.63;20817623;28;20053;-78
2022/12/05 07:59:53;;;;;;;48.72;20.20;;;;;;;3.64;100.00;100505.44;20817819;28;20119;-77
2022/12/05 08:09:55;;;;;;;47.35;22.60;;;;;;;3.64;100.00;100513.22;20815864;28;20064;-76
2022/12/05 08:19:57;;;;;;;46.30;21.25;;;;;;;3.66;100.00;100524.47;20814777;28;20049;-76
2022/12/05 08:29:58;;;;;;;43.30;21.00;;;;;;;3.81;100.00;100514.31;20814379;28;20053;-76
2022/12/05 08:40:00;;;;;;;46.83;20.08;;;;;;;3.82;100.00;100531.56;20812580;28;20517;-76
2022/12/05 08:50:01;;;;;;;45.85;20.63;;;;;;;3.93;100.00;100529.16;20816063;28;20065;-77
2022/12/05 09:00:04;;;;;;;41.53;18.67;;;;;;;4.00;100.00;100548.22;20821858;28;20084;-75
2022/12/05 09:10:06;;;;;;;40.60;18.85;;;;;;;4.17;100.00;100564.88;20830754;28;20049;-75
2022/12/05 09:20:13;;;;;;;42.58;18.73;;;;;;;4.26;100.00;100572.75;20901274;23;20052;-81
2022/12/05 09:30:14;;;;;;;39.30;18.85;;;;;;;4.36;100.00;100581.53;20932097;28;20059;-80
2022/12/05 09:40:16;;;;;;;39.38;18.02;;;;;;;4.50;100.00;100590.31;20865151;23;20088;-72
2022/12/05 09:50:17;;;;;;;41.08;19.20;;;;;;;4.56;100.00;100597.31;20829833;28;20552;-71
2022/12/05 10:00:18;;;;;;;39.20;18.48;;;;;;;4.55;100.00;100598.16;20831485;28;20065;-74
2022/12/05 10:10:20;;;;;;;41.60;18.52;;;;;;;4.58;100.00;100588.69;20828867;28;20061;-73
2022/12/05 10:20:21;;;;;;;51.55;25.00;;;;;;;4.76;100.00;100585.44;20798048;28;20482;-75
2022/12/05 10:30:24;;;;;;;41.30;19.75;;;;;;;4.85;100.00;100577.75;20746142;28;20050;-72
2022/12/05 10:40:25;;;;;;;50.00;23.67;;;;;;;4.90;100.00;100593.38;20804250;28;20176;-73
2022/12/05 10:50:27;;;;;;;53.90;22.33;;;;;;;5.00;100.00;100583.97;20825666;28;20119;-73
2022/12/05 11:00:28;;;;;;;44.28;21.13;;;;;;;5.14;100.00;100590.16;20824112;28;20505;-73
2022/12/05 11:10:30;;;;;;;41.72;20.85;;;;;;;5.40;100.00;100586.03;20822874;28;20080;-73
2022/12/05 11:20:32;;;;;;;34.17;16.67;;;;;;;5.64;100.00;100597.47;20854341;28;20485;-73
2022/12/05 11:30:33;;;;;;;31.08;15.70;;;;;;;5.72;100.00;100588.03;20902545;28;20083;-71
2022/12/05 11:40:34;;;;;;;28.60;15.07;;;;;;;5.81;100.00;100584.63;20902791;28;20374;-71
2022/12/05 11:50:40;;;;;;;27.45;13.85;;;;;;;5.70;100.00;100579.38;20902482;28;20061;-70
2022/12/05 12:00:41;;;;;;;25.23;13.02;;;;;;;5.84;100.00;100569.91;20902222;28;20099;-70
2022/12/05 12:10:43;;;;;;;25.55;13.63;;;;;;;6.03;100.00;100560.50;20855750;28;20045;-70
2022/12/05 12:20:44;;;;;;;25.88;12.20;;;;;;;6.15;100.00;100554.53;20860000;28;20056;-70
2022/12/05 12:30:45;;;;;;;22.40;10.85;;;;;;;6.24;100.00;100559.78;20899936;28;20049;-70
2022/12/05 12:40:46;;;;;;;19.65;10.32;;;;;;;6.09;100.00;100551.91;20980283;28;20049;-70
2022/12/05 12:50:48;;;;;;;17.33;9.52;;;;;;;6.03;100.00;100560.50;20999998;28;20060;-70
2022/12/05 13:00:49;;;;;;;20.50;9.63;;;;;;;5.91;100.00;100558.72;20998619;28;20444;-70
2022/12/05 13:10:51;;;;;;;19.38;10.43;;;;;;;6.02;100.00;100568.31;20997240;28;20143;-70
2022/12/05 13:20:52;;;;;;;19.52;9.88;;;;;;;6.06;100.00;100570.06;20997521;28;20056;-70
2022/12/05 13:30:57;;;;;;;16.70;8.65;;;;;;;6.07;100.00;100571.81;20996674;28;20492;-70
2022/12/05 13:51:18;;;;;;;11.55;5.07;;;;;;;6.04;100.00;100577.88;20909794;28;20818;-70
2022/12/05 14:01:19;;;;;;;6.72;3.70;;;;;;;5.94;100.00;100588.19;20911196;28;20087;-70
2022/12/05 14:11:21;;;;;;;5.25;2.67;;;;;;;5.77;100.00;100590.66;20905564;28;20056;-70
2022/12/05 14:21:22;;;;;;;6.00;2.50;;;;;;;5.76;100.00;100587.19;20948798;28;20056;-70
2022/12/05 14:31:23;;;;;;;5.82;2.45;;;;;;;5.64;100.00;100597.47;20992662;28;20060;-71
2022/12/05 14:41:25;;;;;;;4.32;1.95;;;;;;;5.63;100.00;100595.75;20991146;28;20045;-71
2022/12/05 14:51:26;;;;;;;6.00;2.10;;;;;;;5.56;100.00;100594.84;20991142;28;20393;-70
2022/12/05 15:01:27;;;;;;;5.80;2.88;;;;;;;5.50;100.00;100594.78;20989633;28;20122;-71
2022/12/05 15:11:29;;;;;;;5.43;2.75;;;;;;;5.37;100.00;100601.63;20981312;28;20056;-71
2022/12/05 15:21:30;;;;;;;6.43;3.72;;;;;;;5.24;100.00;100609.28;20951779;28;20067;-71
2022/12/05 15:31:31;;;;;;;9.93;5.10;;;;;;;5.12;100.00;100607.41;20986856;28;20052;-73
2022/12/05 15:41:33;;;;;;;11.30;6.63;;;;;;;5.05;100.00;100616.00;20981216;28;20057;-73
2022/12/05 15:51:34;;;;;;;29.75;14.93;;;;;;;4.83;100.00;100626.16;20951688;28;20543;-76
2022/12/05 16:01:35;;;;;;;9.32;5.00;;;;;;;4.78;100.00;100633.00;20899637;28;20068;-74
2022/12/05 16:11:37;;;;;;;13.07;6.97;;;;;;;4.75;100.00;100638.19;20901176;28;20356;-73
2022/12/05 16:21:39;;;;;;;12.82;8.02;;;;;;;4.77;100.00;100631.28;20943821;28;20052;-74
2022/12/05 16:31:41;;;;;;;10.07;5.57;;;;;;;4.84;100.00;100638.28;20983560;28;20182;-74
2022/12/05 16:41:42;;;;;;;9.38;5.10;;;;;;;4.93;100.00;100644.41;20982745;28;20143;-77
2022/12/05 16:51:43;;;;;;;9.90;5.82;;;;;;;4.89;100.00;100647.00;20983737;28;20071;-74
2022/12/05 17:01:44;;;;;;;10.07;5.38;;;;;;;5.00;100.00;100652.28;20979463;28;20473;-75
2022/12/05 17:11:46;;;;;;;7.03;4.28;;;;;;;4.89;100.00;100648.72;20933661;28;20068;-70
2022/12/05 17:21:48;;;;;;;11.90;7.05;;;;;;;4.82;100.00;100647.75;20979848;28;20075;-70
2022/12/05 17:31:49;;;;;;;14.13;7.38;;;;;;;4.75;100.00;100647.69;20988469;28;20086;-70
2022/12/05 17:41:50;;;;;;;14.68;8.05;;;;;;;4.75;100.00;100664.13;20932768;28;20512;-70
2022/12/05 17:51:53;;;;;;;16.30;8.93;;;;;;;4.70;100.00;100659.72;20903808;28;20152;-70
2022/12/05 18:02:16;;;;;;;15.27;8.68;;;;;;;4.68;100.00;100676.97;20902607;28;20077;-70
2022/12/05 18:12:17;;;;;;;18.88;12.27;;;;;;;4.62;100.00;100664.81;20925491;28;20056;-70
2022/12/05 18:22:18;;;;;;;13.43;7.72;;;;;;;4.46;100.00;100666.34;20984340;28;20061;-74
2022/12/05 18:32:22;;;;;;;19.83;11.55;;;;;;;4.24;100.00;100675.53;20982890;28;20052;-72
2022/12/05 18:42:23;;;;;;;18.45;10.50;;;;;;;3.91;100.00;100672.44;20982637;28;20056;-72
2022/12/05 18:52:24;;;;;;;27.13;14.43;;;;;;;3.70;100.00;100673.84;20982020;28;20052;-75
2022/12/05 19:02:26;;;;;;;23.35;13.55;;;;;;;3.78;100.00;100676.53;20981155;28;20053;-72
2022/12/05 19:12:27;;;;;;;21.65;13.50;;;;;;;3.89;100.00;100679.31;20980685;28;20079;-72
2022/12/05 19:22:29;;;;;;;19.77;11.85;;;;;;;3.86;100.00;100673.22;20979410;28;20493;-77
2022/12/05 19:32:30;;;;;;;18.55;10.98;;;;;;;3.75;100.00;100668.75;20977854;28;20105;-74
2022/12/05 19:42:39;;;;;;;19.35;12.57;;;;;;;3.60;100.00;100664.19;20973488;28;20107;-72
2022/12/05 19:52:41;;;;;;;22.17;12.57;;;;;;;3.62;100.00;100675.44;20967890;28;20440;-74
2022/12/05 20:02:42;;;;;;;20.83;13.27;;;;;;;3.74;100.00;100678.22;20976537;28;20052;-76
2022/12/05 20:12:46;;;;;;;20.58;12.02;;;;;;;3.83;100.00;100683.56;20975861;28;20064;-73
2022/12/05 20:22:47;;;;;;;23.13;13.05;;;;;;;3.91;100.00;100672.44;20975769;28;20408;-73
2022/12/05 20:32:48;;;;;;;12.90;7.75;;;;;;;3.93;100.00;100675.91;20975496;28;20102;-79
2022/12/05 20:42:49;;;;;;;9.25;5.57;;;;;;;3.93;100.00;100670.72;20975723;28;20052;-69
2022/12/05 20:52:51;;;;;;;9.90;5.63;;;;;;;3.96;100.00;100684.59;20975350;28;20099;-71
2022/12/05 21:02:52;;;;;;;9.70;5.03;;;;;;;3.96;100.00;100689.78;20987460;28;20045;-71
2022/12/05 21:12:53;;;;;;;9.75;5.90;;;;;;;3.99;100.00;100688.97;20960570;28;20301;-70
2022/12/05 21:22:55;;;;;;;11.35;6.82;;;;;;;3.97;100.00;100680.28;20958015;28;20408;-71
2022/12/05 21:32:56;;;;;;;9.82;6.28;;;;;;;3.96;100.00;100683.75;20987732;28;20523;-71
2022/12/05 21:42:57;;;;;;;9.77;5.40;;;;;;;3.89;100.00;100680.19;20986258;28;20519;-71
2022/12/05 21:52:58;;;;;;;10.13;5.15;;;;;;;3.83;100.00;100678.38;20986483;28;20264;-75
2022/12/05 22:03:00;;;;;;;12.38;7.32;;;;;;;3.76;100.00;100679.13;20982039;28;20425;-73
2022/12/05 22:13:01;;;;;;;11.85;6.47;;;;;;;3.70;100.00;100689.38;20982434;28;20068;-72
2022/12/05 22:23:02;;;;;;;11.48;6.68;;;;;;;3.66;100.00;100679.81;20983997;28;20511;-73
2022/12/05 22:33:03;;;;;;;10.95;6.18;;;;;;;3.67;100.00;100678.97;20983297;28;20102;-73
2022/12/05 22:43:05;;;;;;;9.93;5.70;;;;;;;3.72;100.00;100684.22;20982514;28;20087;-75
2022/12/05 22:53:06;;;;;;;13.23;6.22;;;;;;;3.75;100.00;100684.28;20981562;28;20049;-73
2022/12/05 23:03:07;;;;;;;9.45;5.32;;;;;;;3.81;100.00;100664.53;20983333;28;20048;-72
2022/12/05 23:13:09;;;;;;;8.52;4.40;;;;;;;3.81;100.00;100661.94;20990436;28;20048;-74
2022/12/05 23:23:10;;;;;;;11.82;6.20;;;;;;;3.87;100.00;100645.59;20984683;28;20109;-78
2022/12/05 23:33:11;;;;;;;12.20;6.15;;;;;;;3.92;100.00;100649.13;20985671;28;20048;-77
2022/12/05 23:43:12;;;;;;;6.50;4.18;;;;;;;3.94;100.00;100654.38;20984374;28;20053;-72
2022/12/05 23:53:14;;;;;;;7.20;4.07;;;;;;;3.95;100.00;100653.50;20984233;28;20319;-72
